Boothville, Louisiana
Current Conditions -  °F | °C
As of 8:51 PM on Sunday 21 Dec 2014 (Local Time) from KBVE Reporting Station
Haze Haze  
Wind Chill: 57°   Ceiling: 4300
Heat Index: 57°   Visibility: 4mi
Dew Point: 57°   Wind: 3mph
Humidity: 100%   Direction: 70°ENE
Pressure: 29.98"   Gusts: NA
Location:  29.34°N, 89.42°W
Report Text: KBVE 220251Z AUTO 07003KT 4SM BR FEW030 BKN043 14/14 A2998 RMK AO2 SLP152 T01390139 51001
Loading
Personal Weather Stations






























Interactive Weather Map New forecast layout! Learn more

10-Day Weather Forecast

Advertisements
Track Severe Weather on mobile